createdAt,value
2017-10-04T00:01:06.785Z,81.50
2017-10-04T00:03:08.063Z,80.60
2017-10-04T00:05:09.254Z,80.30
2017-10-04T00:07:11.450Z,80.50
2017-10-04T00:09:12.839Z,81.40
2017-10-04T00:11:16.311Z,80.50
2017-10-04T00:13:17.691Z,80.40
2017-10-04T00:15:18.897Z,80.50
2017-10-04T00:17:20.305Z,81.20
2017-10-04T00:19:21.355Z,80.60
2017-10-04T00:21:22.430Z,79.70
2017-10-04T00:23:25.846Z,80.10
2017-10-04T00:25:27.227Z,80.30
2017-10-04T00:27:28.559Z,80.40
2017-10-04T00:29:29.680Z,79.90
2017-10-04T00:31:31.254Z,80.50
2017-10-04T00:33:32.594Z,80.70
2017-10-04T00:35:35.087Z,80.00
2017-10-04T00:37:36.283Z,80.00
2017-10-04T00:39:37.506Z,80.00
2017-10-04T00:41:38.769Z,80.00
2017-10-04T00:43:40.040Z,80.00
2017-10-04T00:45:41.143Z,79.20
2017-10-04T00:47:42.259Z,79.60
2017-10-04T00:49:43.339Z,79.80
2017-10-04T00:51:44.594Z,80.30
2017-10-04T00:53:50.457Z,80.10
2017-10-04T00:55:52.575Z,80.00
2017-10-04T00:57:56.907Z,80.40
2017-10-04T00:59:58.418Z,80.40
2017-10-04T01:01:59.873Z,80.50
2017-10-04T01:04:00.998Z,79.20
2017-10-04T01:06:02.090Z,80.20
2017-10-04T01:08:03.235Z,80.20
2017-10-04T01:10:04.640Z,79.80
2017-10-04T01:12:08.159Z,79.90
2017-10-04T01:14:11.665Z,79.80
2017-10-04T01:16:13.131Z,79.20
2017-10-04T01:18:17.043Z,79.20
2017-10-04T01:20:18.814Z,78.90
2017-10-04T01:22:20.012Z,78.50
2017-10-04T01:24:22.369Z,79.30
2017-10-04T01:26:25.068Z,78.60
2017-10-04T01:28:26.561Z,79.30
2017-10-04T01:30:28.468Z,78.90
2017-10-04T01:32:30.433Z,77.80
2017-10-04T01:34:33.792Z,78.40
2017-10-04T01:36:35.774Z,78.90
2017-10-04T01:38:37.295Z,78.20
2017-10-04T01:40:40.121Z,79.00
2017-10-04T01:45:22.273Z,79.20
2017-10-04T01:47:23.546Z,79.30
2017-10-04T01:49:26.734Z,79.20
2017-10-04T01:51:41.006Z,79.30
2017-10-04T01:53:44.208Z,79.70
2017-10-04T01:55:45.667Z,78.90
2017-10-04T01:57:49.137Z,79.20
2017-10-04T01:59:51.204Z,77.80
2017-10-04T02:01:52.208Z,78.30
2017-10-04T02:03:58.926Z,78.60
2017-10-04T02:06:00.170Z,77.10
2017-10-04T02:08:01.221Z,77.30
2017-10-04T02:10:02.222Z,76.50
2017-10-04T02:12:03.192Z,77.40
2017-10-04T02:16:30.692Z,77.00
2017-10-04T02:18:31.639Z,77.00
2017-10-04T02:20:32.636Z,77.90
2017-10-04T02:22:34.464Z,76.60
2017-10-04T02:24:35.538Z,76.70
2017-10-04T02:26:36.556Z,77.60
2017-10-04T02:28:44.208Z,77.00
2017-10-04T02:30:53.006Z,77.20
2017-10-04T02:35:30.792Z,77.90
2017-10-04T02:37:54.078Z,76.90
2017-10-04T02:39:55.088Z,77.20
2017-10-04T02:41:56.113Z,78.10
2017-10-04T02:43:58.132Z,77.60
2017-10-04T02:45:59.068Z,77.70
2017-10-04T02:48:04.278Z,78.20
2017-10-04T02:50:06.826Z,77.80
2017-10-04T02:52:07.844Z,76.70
2017-10-04T02:54:08.865Z,77.60
2017-10-04T02:56:09.829Z,77.20
2017-10-04T02:58:10.956Z,77.60
2017-10-04T03:00:11.989Z,78.00
2017-10-04T03:02:12.967Z,77.80
2017-10-04T03:04:13.972Z,77.00
2017-10-04T03:06:15.139Z,77.40
2017-10-04T03:08:16.251Z,78.20
2017-10-04T03:10:17.299Z,77.20
2017-10-04T03:12:22.836Z,77.70
2017-10-04T03:14:23.804Z,77.60
2017-10-04T03:16:25.129Z,77.90
2017-10-04T03:18:27.397Z,78.00
2017-10-04T03:20:28.626Z,78.10
2017-10-04T03:22:29.646Z,78.00
2017-10-04T03:24:30.642Z,78.00
2017-10-04T03:26:31.782Z,78.10
2017-10-04T03:28:36.325Z,78.00
2017-10-04T03:30:37.335Z,77.40
2017-10-04T03:32:38.324Z,78.00
2017-10-04T03:34:39.397Z,77.70
2017-10-04T03:36:40.474Z,77.80
2017-10-04T03:40:54.638Z,78.30
2017-10-04T03:45:09.576Z,79.00
2017-10-04T03:49:54.000Z,78.10
2017-10-04T03:51:55.021Z,79.40
2017-10-04T03:54:08.452Z,79.30
2017-10-04T03:56:32.784Z,79.00
2017-10-04T03:58:33.747Z,80.20
2017-10-04T04:02:45.543Z,78.30
2017-10-04T04:04:46.943Z,78.50
2017-10-04T04:06:48.700Z,79.20
2017-10-04T04:08:50.191Z,79.10
2017-10-04T04:13:22.124Z,79.00
2017-10-04T04:15:23.062Z,79.10
2017-10-04T04:17:24.054Z,78.30
2017-10-04T04:19:25.169Z,78.10
2017-10-04T04:21:26.196Z,78.80
2017-10-04T04:23:33.719Z,79.30
2017-10-04T04:25:37.211Z,78.60
2017-10-04T04:27:38.313Z,78.60
2017-10-04T04:29:43.183Z,78.50
2017-10-04T04:31:47.177Z,78.50
2017-10-04T04:33:51.644Z,78.70
2017-10-04T04:35:52.589Z,78.40
2017-10-04T04:40:23.736Z,78.70
2017-10-04T04:42:29.578Z,78.00
2017-10-04T04:44:30.714Z,78.00
2017-10-04T04:48:47.351Z,78.70
2017-10-04T04:50:48.349Z,78.50
2017-10-04T04:52:50.104Z,77.80
2017-10-04T04:54:51.077Z,77.90
2017-10-04T04:59:13.112Z,78.00
2017-10-04T05:01:19.114Z,77.90
2017-10-04T05:03:20.085Z,78.70
2017-10-04T05:05:21.392Z,77.70
2017-10-04T05:07:22.546Z,78.20
2017-10-04T05:09:23.605Z,78.10
2017-10-04T05:11:24.623Z,79.10
2017-10-04T05:13:25.607Z,78.90
2017-10-04T05:15:26.581Z,78.30
2017-10-04T05:17:27.605Z,78.50
2017-10-04T05:19:28.952Z,78.80
2017-10-04T05:21:30.101Z,78.00
2017-10-04T05:23:31.890Z,77.60
2017-10-04T05:25:32.909Z,77.60
2017-10-04T05:27:33.925Z,78.50
2017-10-04T05:29:34.893Z,78.00
2017-10-04T05:31:35.903Z,78.50
2017-10-04T05:33:37.703Z,78.30
2017-10-04T05:35:38.850Z,78.30
2017-10-04T05:39:50.560Z,78.70
2017-10-04T05:41:51.583Z,78.00
2017-10-04T05:43:52.570Z,78.80
2017-10-04T05:45:53.544Z,79.30
2017-10-04T05:47:54.633Z,78.70
2017-10-04T05:49:55.664Z,78.90
2017-10-04T05:51:56.640Z,78.00
2017-10-04T05:54:28.569Z,77.90
2017-10-04T05:56:29.625Z,78.00
2017-10-04T05:58:31.328Z,78.00
2017-10-04T06:00:32.439Z,78.00
2017-10-04T06:02:51.032Z,78.50
2017-10-04T06:04:52.041Z,77.80
2017-10-04T06:06:53.119Z,78.10
2017-10-04T06:08:54.905Z,77.40
2017-10-04T06:10:55.898Z,77.40
2017-10-04T06:12:56.913Z,77.70
2017-10-04T06:14:57.883Z,77.50
2017-10-04T06:16:58.888Z,76.90
2017-10-04T06:18:59.880Z,77.40
2017-10-04T06:21:00.947Z,77.10
2017-10-04T06:23:01.988Z,76.50
2017-10-04T06:25:02.996Z,77.90
2017-10-04T06:27:03.998Z,77.20
2017-10-04T06:29:05.695Z,76.40
2017-10-04T06:31:06.668Z,76.40
2017-10-04T06:33:07.635Z,76.30
2017-10-04T06:37:22.408Z,77.40
2017-10-04T06:39:23.377Z,77.20
2017-10-04T06:41:24.447Z,76.20
2017-10-04T06:43:25.432Z,77.10
2017-10-04T06:47:53.279Z,75.60
2017-10-04T06:49:54.429Z,75.60
2017-10-04T06:51:56.217Z,74.90
2017-10-04T06:54:04.429Z,74.90
2017-10-04T06:56:05.505Z,75.00
2017-10-04T06:58:06.508Z,75.00
2017-10-04T07:00:07.516Z,75.00
2017-10-04T07:02:08.495Z,74.00
2017-10-04T07:06:37.652Z,74.50
2017-10-04T07:08:38.725Z,75.10
2017-10-04T07:10:39.720Z,73.30
2017-10-04T07:12:41.553Z,75.10
2017-10-04T07:14:42.732Z,73.80
2017-10-04T07:17:01.896Z,73.30
2017-10-04T07:19:02.966Z,73.60
2017-10-04T07:21:04.056Z,72.80
2017-10-04T07:23:31.468Z,71.80
2017-10-04T07:28:00.457Z,70.80
2017-10-04T07:30:01.613Z,71.40
2017-10-04T07:32:02.657Z,70.50
2017-10-04T07:34:03.682Z,69.50
2017-10-04T07:36:04.673Z,68.80
2017-10-04T07:38:05.824Z,68.10
2017-10-04T07:40:31.269Z,70.20
2017-10-04T07:42:32.365Z,70.00
2017-10-04T07:44:33.405Z,69.30
2017-10-04T07:46:34.443Z,69.60
2017-10-04T07:48:35.703Z,70.30
2017-10-04T07:51:01.784Z,70.40
2017-10-04T07:53:02.891Z,70.90
2017-10-04T07:55:03.893Z,68.90
2017-10-04T07:57:04.885Z,69.10
2017-10-04T07:59:05.972Z,68.70
2017-10-04T08:01:06.961Z,69.60
2017-10-04T08:03:07.945Z,68.30
2017-10-04T08:05:08.943Z,66.50
2017-10-04T08:07:18.604Z,67.60
2017-10-04T08:09:33.871Z,67.60
2017-10-04T08:12:01.328Z,67.70
2017-10-04T08:16:30.491Z,67.30
2017-10-04T08:21:02.468Z,66.60
2017-10-04T08:23:03.480Z,66.60
2017-10-04T08:25:04.480Z,65.90
2017-10-04T08:27:05.484Z,66.80
2017-10-04T08:29:06.486Z,65.10
2017-10-04T08:31:07.646Z,64.90
2017-10-04T08:33:08.623Z,65.70
2017-10-04T08:35:31.962Z,64.50
2017-10-04T08:37:33.050Z,63.90
2017-10-04T08:44:33.350Z,64.30
2017-10-04T08:49:21.572Z,66.10
2017-10-04T08:51:22.548Z,65.60
2017-10-04T08:53:23.594Z,63.80
2017-10-04T08:55:25.439Z,65.10
2017-10-04T08:57:26.686Z,65.00
2017-10-04T08:59:27.647Z,63.80
2017-10-04T09:01:28.632Z,65.50
2017-10-04T09:03:29.684Z,64.40
2017-10-04T09:05:43.143Z,64.80
2017-10-04T09:07:53.771Z,64.40
2017-10-04T09:09:54.759Z,65.10
2017-10-04T09:11:57.036Z,64.80
2017-10-04T09:13:58.785Z,64.10
2017-10-04T09:15:59.761Z,64.00
2017-10-04T09:18:01.480Z,63.60
2017-10-04T09:20:02.751Z,63.40
2017-10-04T09:22:04.477Z,63.80
2017-10-04T09:24:05.455Z,63.80
2017-10-04T09:26:08.386Z,65.40
2017-10-04T09:28:10.198Z,63.80
2017-10-04T09:30:11.169Z,63.70
2017-10-04T09:32:12.115Z,65.70
2017-10-04T09:34:13.099Z,65.40
2017-10-04T09:36:14.043Z,66.00
2017-10-04T09:38:17.364Z,65.80
2017-10-04T09:40:18.391Z,63.50
2017-10-04T09:42:19.417Z,64.90
2017-10-04T09:44:21.136Z,63.30
2017-10-04T09:46:22.937Z,63.30
2017-10-04T09:48:23.871Z,63.30
2017-10-04T09:50:24.801Z,63.20
2017-10-04T09:52:25.757Z,62.90
2017-10-04T09:54:26.749Z,63.20
2017-10-04T09:56:27.720Z,64.60
2017-10-04T09:58:28.675Z,61.60
2017-10-04T10:00:29.667Z,63.00
2017-10-04T10:02:32.393Z,63.30
2017-10-04T10:04:34.081Z,63.20
2017-10-04T10:06:35.052Z,63.70
2017-10-04T10:08:36.142Z,63.20
2017-10-04T10:10:37.160Z,63.30
2017-10-04T10:12:38.889Z,62.20
2017-10-04T10:14:39.879Z,62.10
2017-10-04T10:16:40.901Z,63.50
2017-10-04T10:18:41.896Z,63.50
2017-10-04T10:20:42.929Z,62.20
2017-10-04T10:22:43.905Z,65.00
2017-10-04T10:24:44.930Z,64.40
2017-10-04T10:26:46.000Z,62.50
2017-10-04T10:28:46.985Z,62.90
2017-10-04T10:30:47.945Z,63.30
2017-10-04T10:32:49.759Z,63.40
2017-10-04T10:34:50.767Z,63.30
2017-10-04T10:36:51.980Z,62.30
2017-10-04T10:38:53.033Z,62.20
2017-10-04T10:40:53.988Z,62.90
2017-10-04T10:42:57.217Z,62.90
2017-10-04T10:45:00.225Z,63.20
2017-10-04T10:47:03.448Z,62.00
2017-10-04T10:49:04.508Z,63.30
2017-10-04T10:51:05.541Z,62.30
2017-10-04T10:53:06.564Z,61.80
2017-10-04T10:55:07.536Z,62.90
2017-10-04T10:57:08.528Z,63.30
2017-10-04T10:59:10.211Z,62.10
2017-10-04T11:01:11.184Z,61.90
2017-10-04T11:03:12.148Z,62.10
2017-10-04T11:05:16.873Z,64.00
2017-10-04T11:07:18.300Z,62.20
2017-10-04T11:09:19.343Z,64.10
2017-10-04T11:11:20.317Z,61.20
2017-10-04T11:13:22.934Z,62.40
2017-10-04T11:15:25.620Z,61.20
2017-10-04T11:17:29.172Z,62.10
2017-10-04T11:19:30.176Z,63.40
2017-10-04T11:21:31.413Z,62.30
2017-10-04T11:23:33.174Z,62.10
2017-10-04T11:25:37.202Z,62.10
2017-10-04T11:27:38.284Z,62.10
2017-10-04T11:29:39.326Z,62.00
2017-10-04T11:31:41.053Z,63.10
2017-10-04T11:33:42.358Z,63.00
2017-10-04T11:35:43.373Z,63.80
2017-10-04T11:37:44.356Z,62.40
2017-10-04T11:39:47.082Z,63.20
2017-10-04T11:41:48.303Z,63.00
2017-10-04T11:43:49.283Z,63.20
2017-10-04T11:45:54.781Z,63.70
2017-10-04T11:47:56.917Z,62.00
2017-10-04T11:49:58.727Z,60.60
2017-10-04T11:51:59.723Z,60.70
2017-10-04T11:54:02.691Z,62.00
2017-10-04T11:56:04.081Z,64.70
2017-10-04T11:58:05.236Z,63.30
2017-10-04T12:00:06.246Z,62.70
2017-10-04T12:02:07.221Z,63.60
2017-10-04T12:04:11.621Z,64.20
2017-10-04T12:06:17.035Z,63.40
2017-10-04T12:08:18.254Z,63.00
2017-10-04T12:10:19.260Z,63.90
2017-10-04T12:12:21.419Z,62.40
2017-10-04T12:14:24.694Z,61.60
2017-10-04T12:16:26.544Z,61.50
2017-10-04T12:18:28.439Z,61.40
2017-10-04T12:20:29.411Z,62.30
2017-10-04T12:22:33.232Z,61.90
2017-10-04T12:24:34.269Z,62.20
2017-10-04T12:26:36.431Z,62.90
2017-10-04T12:28:38.167Z,63.70
2017-10-04T12:30:39.235Z,64.20
2017-10-04T12:32:41.876Z,64.50
2017-10-04T12:34:42.861Z,64.50
2017-10-04T12:36:44.584Z,62.60
2017-10-04T12:38:45.548Z,62.60
2017-10-04T12:40:47.787Z,62.80
2017-10-04T12:42:48.766Z,62.90
2017-10-04T12:44:49.715Z,63.60
2017-10-04T12:46:50.666Z,62.40
2017-10-04T12:48:51.639Z,63.10
2017-10-04T12:50:53.311Z,63.00
2017-10-04T12:52:54.323Z,63.00
2017-10-04T12:54:55.344Z,62.80
2017-10-04T12:57:00.677Z,62.80
2017-10-04T12:59:01.889Z,62.80
2017-10-04T13:01:05.321Z,62.50
2017-10-04T13:03:06.317Z,62.60
2017-10-04T13:05:07.461Z,63.10
2017-10-04T13:07:09.196Z,61.40
2017-10-04T13:09:10.220Z,61.20
2017-10-04T13:11:12.524Z,63.20
2017-10-04T13:13:17.740Z,61.90
2017-10-04T13:15:18.786Z,61.80
2017-10-04T13:17:19.803Z,61.90
2017-10-04T13:19:24.618Z,61.90
2017-10-04T13:21:25.624Z,61.80
2017-10-04T13:23:26.784Z,61.80
2017-10-04T13:25:27.760Z,63.30
2017-10-04T13:27:28.707Z,63.60
2017-10-04T13:29:29.676Z,62.00
2017-10-04T13:31:35.734Z,62.90
2017-10-04T13:33:37.733Z,62.50
2017-10-04T13:35:39.465Z,61.80
2017-10-04T13:37:43.145Z,60.70
2017-10-04T13:39:44.112Z,60.80
2017-10-04T13:41:45.851Z,61.80
2017-10-04T13:43:46.940Z,62.90
2017-10-04T13:45:56.129Z,63.30
2017-10-04T13:47:57.244Z,61.20
2017-10-04T13:52:05.912Z,63.50
2017-10-04T13:54:06.905Z,63.10
2017-10-04T13:56:07.920Z,64.10
2017-10-04T13:58:13.305Z,63.50
2017-10-04T14:00:15.138Z,62.50
2017-10-04T14:02:16.191Z,62.50
2017-10-04T14:04:17.347Z,63.40
2017-10-04T14:06:18.495Z,63.10
2017-10-04T14:08:19.578Z,62.60
2017-10-04T14:10:20.828Z,62.40
2017-10-04T14:12:21.909Z,63.30
2017-10-04T14:14:22.868Z,63.80
2017-10-04T14:16:23.893Z,63.30
2017-10-04T14:18:25.220Z,63.60
2017-10-04T14:20:26.385Z,62.40
2017-10-04T14:22:27.378Z,64.90
2017-10-04T14:24:28.397Z,64.40
2017-10-04T14:26:29.393Z,63.60
2017-10-04T14:28:30.485Z,63.90
2017-10-04T14:30:31.441Z,62.20
2017-10-04T14:32:33.242Z,63.10
2017-10-04T14:34:34.254Z,64.20
2017-10-04T14:36:35.220Z,63.20
2017-10-04T14:38:36.188Z,63.40
2017-10-04T14:40:37.193Z,63.30
2017-10-04T14:42:38.562Z,65.30
2017-10-04T14:44:39.630Z,62.40
2017-10-04T14:46:40.604Z,61.70
2017-10-04T14:48:41.579Z,63.00
2017-10-04T14:50:42.581Z,63.20
2017-10-04T14:52:43.696Z,63.80
2017-10-04T14:54:44.681Z,62.60
2017-10-04T14:56:45.665Z,62.80
2017-10-04T14:58:46.617Z,63.80
2017-10-04T15:00:47.617Z,63.10
2017-10-04T15:02:48.574Z,63.90
2017-10-04T15:04:49.593Z,62.00
2017-10-04T15:06:50.608Z,64.40
2017-10-04T15:08:51.690Z,64.30
2017-10-04T15:10:52.707Z,63.80
2017-10-04T15:12:53.722Z,64.90
2017-10-04T15:14:54.709Z,65.10
2017-10-04T15:16:55.734Z,65.10
2017-10-04T15:18:56.753Z,65.90
2017-10-04T15:20:57.724Z,65.40
2017-10-04T15:22:58.699Z,65.70
2017-10-04T15:24:59.832Z,65.40
2017-10-04T15:27:00.921Z,64.40
2017-10-04T15:29:01.893Z,64.00
2017-10-04T15:31:02.896Z,65.60
2017-10-04T15:33:03.882Z,65.60
2017-10-04T15:35:04.951Z,66.00
2017-10-04T15:37:06.122Z,64.20
2017-10-04T15:39:07.329Z,66.00
2017-10-04T15:41:08.390Z,65.00
2017-10-04T15:43:09.470Z,65.80
2017-10-04T15:45:11.395Z,66.10
2017-10-04T15:47:12.648Z,66.10
2017-10-04T15:49:13.672Z,65.30
2017-10-04T15:51:14.703Z,64.10
2017-10-04T15:53:15.838Z,65.20
2017-10-04T15:55:17.114Z,65.70
2017-10-04T15:57:18.155Z,66.40
2017-10-04T15:59:20.736Z,66.00
2017-10-04T16:01:21.844Z,66.00
2017-10-04T16:03:23.057Z,67.30
2017-10-04T16:05:24.449Z,67.00
2017-10-04T16:07:25.466Z,67.00
2017-10-04T16:09:28.163Z,65.90
2017-10-04T16:11:29.283Z,67.20
2017-10-04T16:13:31.623Z,66.50
2017-10-04T16:15:33.731Z,66.60
2017-10-04T16:17:36.724Z,66.90
2017-10-04T16:19:38.971Z,66.90
2017-10-04T16:21:41.370Z,67.50
2017-10-04T16:23:42.584Z,66.50
2017-10-04T16:25:43.690Z,67.10
2017-10-04T16:27:45.271Z,67.40
2017-10-04T16:29:46.320Z,67.70
2017-10-04T16:31:47.850Z,67.10
2017-10-04T16:33:49.166Z,67.90
2017-10-04T16:35:50.328Z,68.20
2017-10-04T16:37:51.527Z,67.10
2017-10-04T16:39:53.166Z,67.70
2017-10-04T16:41:54.367Z,67.80
2017-10-04T16:43:55.434Z,67.00
2017-10-04T16:45:56.650Z,68.40
2017-10-04T16:47:58.312Z,67.70
2017-10-04T16:49:59.622Z,67.50
2017-10-04T16:52:00.752Z,67.40
2017-10-04T16:54:01.974Z,67.60
2017-10-04T16:56:03.059Z,67.30
2017-10-04T16:58:04.113Z,67.50
2017-10-04T17:00:05.156Z,66.80
2017-10-04T17:02:06.515Z,67.70
2017-10-04T17:04:07.783Z,67.40
2017-10-04T17:06:08.820Z,68.10
2017-10-04T17:08:10.180Z,67.20
2017-10-04T17:10:11.344Z,68.10
2017-10-04T17:12:12.352Z,67.10
2017-10-04T17:14:15.069Z,67.00
2017-10-04T17:16:17.266Z,67.10
2017-10-04T17:18:18.434Z,68.20
2017-10-04T17:20:19.626Z,67.30
2017-10-04T17:22:20.670Z,67.70
2017-10-04T17:24:24.073Z,68.00
2017-10-04T17:26:27.476Z,68.00
2017-10-04T17:28:28.690Z,68.30
2017-10-04T17:30:30.071Z,67.70
2017-10-04T17:32:31.356Z,68.30
2017-10-04T17:34:32.495Z,67.70
2017-10-04T17:39:11.175Z,67.60
2017-10-04T17:41:12.327Z,68.80
2017-10-04T17:43:14.440Z,68.80
2017-10-04T17:45:17.858Z,68.20
2017-10-04T17:47:18.969Z,68.20
2017-10-04T17:49:20.297Z,68.20
2017-10-04T17:51:22.699Z,69.10
2017-10-04T17:53:23.746Z,68.20
2017-10-04T17:55:24.821Z,69.00
2017-10-04T17:57:46.724Z,68.80
2017-10-04T17:59:48.677Z,69.20
2017-10-04T18:02:10.504Z,68.50
2017-10-04T18:04:14.502Z,67.90
2017-10-04T18:06:16.698Z,67.90
2017-10-04T18:10:42.924Z,68.80
2017-10-04T18:12:45.406Z,68.10
2017-10-04T18:14:47.189Z,67.10
2017-10-04T18:16:59.120Z,68.30
2017-10-04T18:19:00.249Z,67.60
2017-10-04T18:21:01.364Z,67.30
2017-10-04T18:23:02.458Z,67.50
2017-10-04T18:25:03.871Z,68.60
2017-10-04T18:27:05.263Z,68.00
2017-10-04T18:29:07.448Z,68.70
2017-10-04T18:31:11.405Z,67.50
2017-10-04T18:33:14.187Z,68.00
2017-10-04T18:35:16.293Z,67.80
2017-10-04T18:37:18.527Z,67.30
2017-10-04T18:39:19.824Z,67.70
2017-10-04T18:41:20.982Z,67.60
2017-10-04T18:43:22.112Z,67.50
2017-10-04T18:45:23.310Z,67.70
2017-10-04T18:47:24.357Z,67.40
2017-10-04T18:49:26.380Z,68.00
2017-10-04T18:51:27.711Z,68.20
2017-10-04T18:53:28.789Z,66.50
2017-10-04T18:55:29.957Z,67.50
2017-10-04T18:57:31.100Z,67.80
2017-10-04T18:59:32.170Z,66.80
2017-10-04T19:01:33.221Z,66.60
2017-10-04T19:03:34.356Z,67.80
2017-10-04T19:05:35.956Z,67.80
2017-10-04T19:07:37.450Z,67.00
2017-10-04T19:09:38.530Z,67.20
2017-10-04T19:11:39.610Z,67.60
2017-10-04T19:13:40.649Z,66.90
2017-10-04T19:15:41.706Z,67.30
2017-10-04T19:17:44.087Z,67.70
2017-10-04T19:19:51.950Z,68.00
2017-10-04T19:21:53.220Z,67.00
2017-10-04T19:26:04.091Z,66.60
2017-10-04T19:28:05.636Z,68.00
2017-10-04T19:32:44.769Z,67.40
2017-10-04T19:35:03.148Z,67.20
2017-10-04T19:37:06.073Z,66.50
2017-10-04T19:44:23.667Z,67.40
2017-10-04T19:46:36.622Z,67.00
2017-10-04T19:51:16.794Z,67.60
2017-10-04T19:53:17.853Z,67.90
2017-10-04T19:55:18.908Z,67.70
2017-10-04T19:57:20.397Z,67.40
2017-10-04T19:59:22.757Z,67.50
2017-10-04T20:01:23.881Z,67.30
2017-10-04T20:03:25.871Z,66.90
2017-10-04T20:05:30.072Z,67.10
2017-10-04T20:07:33.122Z,67.30
2017-10-04T20:09:34.269Z,67.70
2017-10-04T20:11:35.384Z,67.30
2017-10-04T20:13:37.173Z,67.10
2017-10-04T20:17:54.514Z,67.10
2017-10-04T20:19:55.778Z,67.00
2017-10-04T20:22:02.261Z,67.00
2017-10-04T20:24:03.385Z,66.80
2017-10-04T20:26:04.481Z,67.40
2017-10-04T20:28:10.443Z,67.00
2017-10-04T20:30:14.033Z,67.00
2017-10-04T20:32:15.173Z,68.00
2017-10-04T20:34:16.523Z,67.30
2017-10-04T20:36:18.510Z,68.10
2017-10-04T20:38:19.627Z,68.20
2017-10-04T20:40:21.292Z,66.80
2017-10-04T20:42:22.814Z,68.30
2017-10-04T20:44:24.050Z,67.60
2017-10-04T20:46:25.336Z,68.30
2017-10-04T20:48:26.466Z,68.20
2017-10-04T20:50:27.609Z,68.20
2017-10-04T20:52:28.648Z,67.20
2017-10-04T20:54:29.694Z,67.80
2017-10-04T20:56:38.370Z,67.40
2017-10-04T20:58:39.422Z,67.40
2017-10-04T21:00:40.432Z,68.20
2017-10-04T21:02:41.606Z,67.20
2017-10-04T21:04:42.931Z,67.50
2017-10-04T21:06:50.237Z,68.10
2017-10-04T21:08:51.331Z,68.40
2017-10-04T21:10:52.545Z,69.10
2017-10-04T21:12:53.988Z,68.50
2017-10-04T21:14:55.156Z,69.00
2017-10-04T21:16:56.223Z,68.40
2017-10-04T21:18:57.312Z,68.70
2017-10-04T21:20:58.374Z,69.40
2017-10-04T21:23:00.179Z,68.60
2017-10-04T21:25:01.353Z,68.30
2017-10-04T21:27:03.525Z,68.80
2017-10-04T21:29:04.855Z,69.30
2017-10-04T21:31:06.144Z,69.50
2017-10-04T21:33:07.200Z,69.00
2017-10-04T21:35:08.522Z,69.40
2017-10-04T21:37:09.650Z,68.90
2017-10-04T21:39:11.277Z,68.60
2017-10-04T21:41:12.363Z,68.70
2017-10-04T21:43:13.878Z,68.70
2017-10-04T21:45:15.072Z,68.90
2017-10-04T21:47:16.428Z,68.70
2017-10-04T21:49:17.736Z,68.80
2017-10-04T21:51:19.110Z,69.40
2017-10-04T21:53:20.208Z,69.00
2017-10-04T21:55:22.483Z,69.30
2017-10-04T21:57:23.574Z,70.10
2017-10-04T21:59:24.667Z,70.10
2017-10-04T22:01:25.800Z,70.20
2017-10-04T22:03:26.845Z,69.80
2017-10-04T22:05:28.186Z,69.30
2017-10-04T22:07:29.656Z,70.00
2017-10-04T22:09:32.116Z,69.70
2017-10-04T22:11:33.916Z,69.90
2017-10-04T22:13:34.998Z,69.90
2017-10-04T22:15:36.410Z,70.20
2017-10-04T22:17:37.507Z,70.40
2017-10-04T22:19:38.619Z,70.20
2017-10-04T22:21:39.872Z,70.60
2017-10-04T22:23:41.409Z,70.20
2017-10-04T22:25:42.461Z,70.20
2017-10-04T22:27:46.061Z,70.80
2017-10-04T22:29:48.068Z,70.70
2017-10-04T22:31:49.263Z,70.20
2017-10-04T22:33:51.624Z,70.20
2017-10-04T22:35:52.959Z,70.10
2017-10-04T22:37:57.009Z,71.20
2017-10-04T22:39:58.118Z,71.80
2017-10-04T22:41:59.273Z,70.30
2017-10-04T22:44:00.418Z,70.50
2017-10-04T22:46:01.804Z,71.20
2017-10-04T22:48:02.946Z,71.30
2017-10-04T22:50:03.974Z,71.90
2017-10-04T22:52:05.065Z,71.70
2017-10-04T22:54:06.833Z,72.70
2017-10-04T22:56:08.081Z,71.70
2017-10-04T22:58:09.421Z,72.90
2017-10-04T23:00:11.981Z,74.00
2017-10-04T23:02:13.111Z,73.70
2017-10-04T23:04:14.278Z,73.80
2017-10-04T23:06:15.444Z,74.90
2017-10-04T23:08:17.342Z,74.90
2017-10-04T23:10:19.400Z,75.30
2017-10-04T23:12:20.459Z,74.90
2017-10-04T23:14:21.540Z,74.90
2017-10-04T23:19:05.024Z,74.90
2017-10-04T23:21:09.189Z,75.50
2017-10-04T23:23:14.029Z,75.90
2017-10-04T23:25:16.313Z,76.20
2017-10-04T23:27:18.683Z,75.90
2017-10-04T23:29:19.952Z,75.50
2017-10-04T23:31:22.002Z,75.50
2017-10-04T23:33:23.224Z,76.20
2017-10-04T23:35:24.403Z,76.80
2017-10-04T23:37:26.864Z,76.70
2017-10-04T23:39:28.510Z,75.90
2017-10-04T23:41:30.784Z,76.10
2017-10-04T23:43:32.130Z,75.50
2017-10-04T23:45:33.888Z,75.70
2017-10-04T23:47:35.048Z,75.30
2017-10-04T23:49:36.258Z,75.50
2017-10-04T23:51:37.527Z,76.10
2017-10-04T23:53:42.194Z,77.40
2017-10-04T23:55:44.479Z,77.60
2017-10-04T23:57:45.752Z,78.40
2017-10-04T23:59:46.791Z,78.00
